createdAt,value
2019-04-05T03:07:10.577Z,3.3
2019-04-05T03:08:00.368Z,3.3
2019-04-05T03:09:05.321Z,3.3
2019-04-05T03:09:40.759Z,3.3
2019-04-05T03:10:30.811Z,3.3
2019-04-05T03:11:20.329Z,3.3
2019-04-05T03:12:10.709Z,3.3
2019-04-05T03:13:00.986Z,3.3
2019-04-05T03:13:50.799Z,3.3
2019-04-05T03:14:41.001Z,3.3
2019-04-05T03:15:30.618Z,3.3
2019-04-05T03:16:21.360Z,3.3
2019-04-05T03:17:11.018Z,3.3
2019-04-05T03:18:01.337Z,3.3
2019-04-05T03:18:51.426Z,3.3
2019-04-05T03:19:41.179Z,3.3
2019-04-05T03:20:31.504Z,3.3
2019-04-05T03:21:21.384Z,3.2
2019-04-05T03:22:11.652Z,3.3
2019-04-05T03:23:01.710Z,3.2
2019-04-05T03:23:51.771Z,3.2
2019-04-05T03:24:41.846Z,3.2
2019-04-05T03:25:31.686Z,3.2
2019-04-05T03:26:21.946Z,3.2
2019-04-05T03:27:11.744Z,3.1
2019-04-05T03:28:02.048Z,3.1
2019-04-05T03:28:52.130Z,3.1
2019-04-05T03:29:42.171Z,3.1
2019-04-05T03:30:32.309Z,3.1
2019-04-05T03:31:27.585Z,3.1
2019-04-05T03:32:12.486Z,3.1
2019-04-05T03:33:02.599Z,3.1
2019-04-05T03:33:52.551Z,3.1
2019-04-05T03:34:42.753Z,3.1
2019-04-05T03:35:32.518Z,3
2019-04-05T03:36:22.381Z,3.1
2019-04-05T03:37:12.170Z,3
2019-04-05T03:38:02.528Z,3
2019-04-05T03:38:52.295Z,3
2019-04-05T03:39:42.947Z,3
2019-04-05T03:40:32.417Z,3
2019-04-05T03:41:23.054Z,3
2019-04-05T03:42:12.827Z,3
2019-04-05T03:43:02.922Z,3
2019-04-05T03:43:52.994Z,3
2019-04-05T03:44:43.023Z,2.9
2019-04-05T03:45:33.325Z,2.9
2019-04-05T03:46:23.142Z,2.9
2019-04-05T03:47:13.206Z,2.9
2019-04-05T03:48:03.642Z,2.9
2019-04-05T03:48:53.350Z,2.9
2019-04-05T03:49:43.644Z,2.9
2019-04-05T03:50:33.735Z,2.9
2019-04-05T03:51:23.487Z,2.9
2019-04-05T03:52:13.820Z,2.9
2019-04-05T03:53:03.879Z,2.9
2019-04-05T03:53:53.978Z,2.9
2019-04-05T03:54:43.726Z,2.9
2019-04-05T03:55:34.047Z,2.9
2019-04-05T03:56:24.131Z,2.9
2019-04-05T03:57:13.931Z,2.9
2019-04-05T03:58:04.008Z,2.9
2019-04-05T03:58:53.772Z,2.9
2019-04-05T03:59:44.361Z,2.9
2019-04-05T04:00:34.452Z,2.9
2019-04-05T04:01:24.241Z,2.9
2019-04-05T04:02:14.524Z,2.9
2019-04-05T04:03:04.610Z,2.9
2019-04-05T04:03:54.377Z,2.8
2019-04-05T04:04:59.383Z,2.9
2019-04-05T04:05:34.513Z,2.9
2019-04-05T04:06:24.638Z,2.9
2019-04-05T04:07:14.904Z,2.9
2019-04-05T04:08:04.995Z,2.9
2019-04-05T04:08:54.355Z,2.9
2019-04-05T04:09:45.123Z,2.9
2019-04-05T04:10:34.870Z,2.9
2019-04-05T04:11:25.229Z,2.8
2019-04-05T04:12:15.303Z,2.8
2019-04-05T04:13:05.048Z,2.8
2019-04-05T04:13:55.359Z,2.8
2019-04-05T04:14:45.439Z,2.8
2019-04-05T04:15:35.576Z,2.8
2019-04-05T04:16:25.317Z,2.9
2019-04-05T04:17:15.502Z,2.8
2019-04-05T04:18:05.412Z,2.8
2019-04-05T04:18:55.796Z,2.8
2019-04-05T04:19:45.810Z,2.8
2019-04-05T04:20:35.873Z,2.8
2019-04-05T04:21:25.927Z,2.8
2019-04-05T04:22:15.711Z,2.8
2019-04-05T04:23:06.053Z,2.8
2019-04-05T04:23:56.107Z,2.8
2019-04-05T04:24:46.270Z,2.9
2019-04-05T04:25:36.234Z,2.9
2019-04-05T04:26:26.291Z,2.9
2019-04-05T04:27:16.344Z,2.9
2019-04-05T04:28:06.110Z,2.9
2019-04-05T04:28:56.496Z,2.9
2019-04-05T04:29:46.552Z,2.9
2019-04-05T04:30:36.057Z,2.9
2019-04-05T04:31:26.396Z,2.9
2019-04-05T04:32:16.782Z,2.9
2019-04-05T04:33:06.767Z,2.9
2019-04-05T04:33:56.929Z,2.9
2019-04-05T04:34:46.877Z,3
2019-04-05T04:36:27.027Z,3
2019-04-05T04:37:17.083Z,3
2019-04-05T04:38:07.114Z,3
2019-04-05T04:38:56.932Z,3
2019-04-05T04:39:46.984Z,3.1
2019-04-05T04:40:37.071Z,3.1
2019-04-05T04:41:27.378Z,3.1
2019-04-05T04:42:17.421Z,3.1
2019-04-05T04:43:07.196Z,3.1
2019-04-05T04:43:57.554Z,3.1
2019-04-05T04:44:47.596Z,3.2
2019-04-05T04:45:37.153Z,3.2
2019-04-05T04:46:27.723Z,3.2
2019-04-05T04:47:29.095Z,3.2
2019-04-05T04:48:07.878Z,3.3
2019-04-05T04:48:57.632Z,3.3
2019-04-05T04:49:47.978Z,3.3
2019-04-05T04:50:37.741Z,3.3
2019-04-05T04:51:28.058Z,3.3
2019-04-05T04:52:17.862Z,3.3
2019-04-05T04:53:08.183Z,3.4
2019-04-05T04:53:57.978Z,3.4
2019-04-05T04:54:48.297Z,3.4
2019-04-05T04:55:38.380Z,3.4
2019-04-05T04:56:28.143Z,3.4
2019-04-05T04:57:18.485Z,3.4
2019-04-05T04:58:07.742Z,3.5
2019-04-05T04:58:58.335Z,3.5
2019-04-05T04:59:48.674Z,3.6
2019-04-05T05:00:38.461Z,3.6
2019-04-05T05:01:28.555Z,3.6
2019-04-05T05:02:18.871Z,3.7
2019-04-05T05:03:08.920Z,3.7
2019-04-05T05:03:58.993Z,3.8
2019-04-05T05:04:49.036Z,3.9
2019-04-05T05:05:39.120Z,3.9
2019-04-05T05:06:28.879Z,4
2019-04-05T05:07:18.953Z,4.1
2019-04-05T05:08:09.279Z,4.2
2019-04-05T05:08:59.076Z,4.3
2019-04-05T05:09:49.396Z,4.4
2019-04-05T05:10:39.447Z,4.6
2019-04-05T05:11:29.247Z,4.8
2019-04-05T05:12:19.579Z,4.9
2019-04-05T05:13:09.367Z,5.1
2019-04-05T05:13:59.693Z,5.3
2019-04-05T05:14:49.281Z,5.4
2019-04-05T05:15:39.801Z,5.6
2019-04-05T05:16:29.183Z,5.8
2019-04-05T05:17:19.456Z,6.1
2019-04-05T05:18:09.524Z,6.3
2019-04-05T05:18:59.573Z,6.4
2019-04-05T05:19:49.632Z,6.7
2019-04-05T05:20:39.416Z,6.9
2019-04-05T05:21:29.746Z,7.1
2019-04-05T05:22:19.814Z,7.3
2019-04-05T05:23:09.611Z,7.6
2019-04-05T05:23:59.933Z,7.8
2019-04-05T05:24:49.997Z,8.1
2019-04-05T05:25:40.058Z,8.3
2019-04-05T05:26:30.591Z,8.5
2019-04-05T05:27:20.173Z,8.8
2019-04-05T05:28:10.715Z,9
2019-04-05T05:29:00.354Z,9.3
2019-04-05T05:29:50.358Z,9.5
2019-04-05T05:30:40.821Z,9.8
2019-04-05T05:31:30.960Z,10.1
2019-04-05T05:32:21.011Z,10.3
2019-04-05T05:33:10.801Z,10.6
2019-04-05T05:34:01.143Z,10.9
2019-04-05T05:35:04.123Z,11.2
2019-04-05T05:35:41.280Z,11.6
2019-04-05T05:36:31.543Z,11.8
2019-04-05T05:37:21.100Z,12.1
2019-04-05T05:38:26.112Z,12.4
2019-04-05T05:39:01.515Z,12.8
2019-04-05T05:39:51.800Z,13
2019-04-05T05:40:41.607Z,13.3
2019-04-05T05:41:31.435Z,13.6
2019-04-05T05:42:21.472Z,13.9
2019-04-05T05:43:11.793Z,14.3
2019-04-05T05:44:01.863Z,14.6
2019-04-05T05:44:51.637Z,14.9
2019-04-05T05:45:42.017Z,15.1
2019-04-05T05:46:32.048Z,15.4
2019-04-05T05:47:21.835Z,15.8
2019-04-05T05:48:11.913Z,16.1
2019-04-05T05:49:02.246Z,16.4
2019-04-05T05:49:52.282Z,16.7
2019-04-05T05:50:42.327Z,17.1
2019-04-05T05:51:32.397Z,17.4
2019-04-05T05:52:22.449Z,17.8
2019-04-05T05:53:11.974Z,18
2019-04-05T05:54:02.314Z,18.4
2019-04-05T05:55:42.702Z,19
2019-04-05T05:56:32.277Z,19.4
2019-04-05T05:57:22.831Z,19.8
2019-04-05T05:58:12.604Z,20.1
2019-04-05T05:59:02.954Z,20.4
2019-04-05T05:59:52.994Z,20.6
2019-04-05T06:00:42.784Z,21
2019-04-05T06:01:32.578Z,21.3
2019-04-05T06:02:23.199Z,21.6
2019-04-05T06:03:16.971Z,21.9
2019-04-05T06:05:09.658Z,22.6
2019-04-05T06:06:06.682Z,23
2019-04-05T06:06:50.534Z,23.4
2019-04-05T06:07:39.848Z,23.6
2019-04-05T06:08:31.312Z,23.9
2019-04-05T06:09:20.228Z,24.2
2019-04-05T06:10:10.559Z,24.5
2019-04-05T06:11:00.008Z,24.8
2019-04-05T06:11:50.895Z,25.1
2019-04-05T06:12:40.673Z,25.4
2019-04-05T06:13:30.758Z,25.7
2019-04-05T06:14:21.163Z,26.1
2019-04-05T06:15:11.130Z,26.4
2019-04-05T06:16:01.186Z,26.8
2019-04-05T06:17:06.137Z,27
2019-04-05T06:17:41.388Z,27.4
2019-04-05T06:18:31.375Z,27.6
2019-04-05T06:19:21.155Z,27.9
2019-04-05T06:20:11.015Z,28.3
2019-04-05T06:21:04.850Z,28.6
2019-04-05T06:21:51.607Z,28.9
2019-04-05T06:22:41.385Z,29.2
2019-04-05T06:23:35.843Z,29.6
2019-04-05T06:24:21.800Z,29.9
2019-04-05T06:25:11.972Z,30.2
2019-04-05T06:26:01.643Z,30.5
2019-04-05T06:26:51.990Z,30.9
2019-04-05T06:27:41.747Z,31.3
2019-04-05T06:28:32.270Z,31.7
2019-04-05T06:29:22.148Z,32.1
2019-04-05T06:30:11.963Z,32.5
2019-04-05T06:31:02.299Z,32.9
2019-04-05T06:31:52.559Z,33.3
2019-04-05T06:32:42.117Z,33.6
2019-04-05T06:33:36.900Z,33.9
2019-04-05T06:34:21.957Z,34.3
2019-04-05T06:35:12.279Z,34.6
2019-04-05T06:36:02.368Z,34.9
2019-04-05T06:36:53.279Z,35.3
2019-04-05T06:37:42.535Z,35.6
2019-04-05T06:38:32.250Z,36
2019-04-05T06:39:22.925Z,36.4
2019-04-05T06:40:12.651Z,36.9
2019-04-05T06:41:02.441Z,37.3
2019-04-05T06:41:52.216Z,37.6
2019-04-05T06:42:42.842Z,37.9
2019-04-05T06:43:32.621Z,38.2
2019-04-05T06:44:23.228Z,38.5
2019-04-05T06:45:13.026Z,38.9
2019-04-05T06:46:04.211Z,39.2
2019-04-05T06:46:53.349Z,39.6
2019-04-05T06:47:42.911Z,40
2019-04-05T06:48:33.286Z,40.3
2019-04-05T06:49:23.573Z,40.7
2019-04-05T06:50:13.366Z,41.1
2019-04-05T06:51:03.424Z,41.4
2019-04-05T06:51:53.794Z,41.8
2019-04-05T06:52:43.546Z,43
2019-04-05T06:53:33.888Z,43.4
2019-04-05T06:54:23.947Z,42.7
2019-04-05T06:55:14.009Z,41.5
2019-04-05T06:56:04.083Z,38.5
2019-04-05T06:56:54.137Z,35.7
2019-04-05T06:57:44.264Z,34.1
2019-04-05T06:58:34.239Z,33.1
2019-04-05T06:59:24.309Z,32.4
2019-04-05T07:00:13.650Z,32.2
2019-04-05T07:01:03.863Z,32.2
2019-04-05T07:01:54.477Z,32.5
2019-04-05T07:02:44.543Z,32.6
2019-04-05T07:05:10.433Z,33.6
2019-04-05T07:06:00.173Z,34.4
2019-04-05T07:06:50.500Z,35
2019-04-05T07:07:40.291Z,35.6
2019-04-05T07:08:30.637Z,36.2
2019-04-05T07:09:20.675Z,36.8
2019-04-05T07:10:10.452Z,37.3
2019-04-05T07:11:00.840Z,37.9
2019-04-05T07:11:50.852Z,38.4
2019-04-05T07:12:40.665Z,39.1
2019-04-05T07:13:30.718Z,39.7
2019-04-05T07:14:21.063Z,40.3
2019-04-05T07:15:10.811Z,40.9
2019-04-05T07:16:01.140Z,41.6
2019-04-05T07:16:51.225Z,42.6
2019-04-05T07:17:41.257Z,43.9
2019-04-05T07:18:37.690Z,43.6
2019-04-05T07:19:21.398Z,42.9
2019-04-05T07:20:10.963Z,41.9
2019-04-05T07:21:01.244Z,40.3
2019-04-05T07:21:51.300Z,38.7
2019-04-05T07:22:40.904Z,37.6
2019-04-05T07:23:31.701Z,36.9
2019-04-05T07:24:21.539Z,36.7
2019-04-05T07:25:11.826Z,36.9
2019-04-05T07:26:01.869Z,37.3
2019-04-05T07:26:51.669Z,37.6
2019-04-05T07:27:41.999Z,38.1
2019-04-05T07:28:32.064Z,38.8
2019-04-05T07:29:22.164Z,39.6
2019-04-05T07:30:12.174Z,40.4
2019-04-05T07:31:01.983Z,41.3
2019-04-05T07:31:52.293Z,42.4
2019-04-05T07:32:42.358Z,44.6
2019-04-05T07:33:31.916Z,45.4
2019-04-05T07:34:22.471Z,45.7
2019-04-05T07:35:12.274Z,45.6
2019-04-05T07:36:05.241Z,44.1
2019-04-05T07:36:52.726Z,42.9
2019-04-05T07:37:42.708Z,42.1
2019-04-05T07:38:32.775Z,42.1
2019-04-05T07:39:22.838Z,42.8
2019-04-05T07:40:12.338Z,43.6
2019-04-05T07:41:02.964Z,44.1
2019-04-05T07:41:52.748Z,44.3
2019-04-05T07:42:43.085Z,44.2
2019-04-05T07:43:33.148Z,43.9
2019-04-05T07:44:22.925Z,43.8
2019-04-05T07:45:12.715Z,43.9
2019-04-05T07:46:02.764Z,44.2
2019-04-05T07:46:53.383Z,44.5
2019-04-05T07:47:43.452Z,44.7
2019-04-05T07:48:47.110Z,44.8
2019-04-05T07:49:23.365Z,44.9
2019-04-05T07:50:13.609Z,44.9
2019-04-05T07:51:03.678Z,44.9
2019-04-05T07:51:53.748Z,44.8
2019-04-05T07:52:43.882Z,44.6
2019-04-05T07:53:33.868Z,44.5
2019-04-05T07:54:23.727Z,44.4
2019-04-05T07:55:13.700Z,44.3
2019-04-05T07:56:03.772Z,44.3
2019-04-05T07:56:53.835Z,44.6
2019-04-05T07:57:44.219Z,44.9
2019-04-05T07:58:33.961Z,45.3
2019-04-05T07:59:24.282Z,45.3
2019-04-05T08:00:14.357Z,45.1
2019-04-05T08:01:04.394Z,44.5
2019-04-05T08:01:54.197Z,44.1
2019-04-05T08:02:44.272Z,43.6
2019-04-05T08:03:34.584Z,43.3
2019-04-05T08:04:24.659Z,43.1
2019-04-05T08:05:14.454Z,42.8
2019-04-05T08:06:04.233Z,42.4
2019-04-05T08:06:54.826Z,41.9
2019-04-05T08:07:44.904Z,41.3
2019-04-05T08:08:34.943Z,40.7
2019-04-05T08:09:25.037Z,40.2
2019-04-05T08:10:15.057Z,39.8
2019-04-05T08:11:05.195Z,39.4
2019-04-05T08:11:55.193Z,39.1
2019-04-05T08:12:44.983Z,38.8
2019-04-05T08:13:35.340Z,38.4
2019-04-05T08:14:25.371Z,37.8
2019-04-05T08:15:15.142Z,36.7
2019-04-05T08:16:05.494Z,35.9
2019-04-05T08:16:55.271Z,35.3
2019-04-05T08:17:45.075Z,34.9
2019-04-05T08:18:35.422Z,34.7
2019-04-05T08:19:25.194Z,34.6
2019-04-05T08:20:15.584Z,34.4
2019-04-05T08:21:05.866Z,34.3
2019-04-05T08:21:55.918Z,34.1
2019-04-05T08:22:45.690Z,34
2019-04-05T08:23:36.049Z,33.8
2019-04-05T08:24:26.092Z,33.7
2019-04-05T08:25:15.879Z,33.5
2019-04-05T08:26:06.217Z,33.4
2019-04-05T08:26:56.274Z,33.3
2019-04-05T08:27:46.353Z,33.2
2019-04-05T08:28:36.426Z,33.1
2019-04-05T08:29:26.197Z,33.1
2019-04-05T08:30:16.522Z,33.1
2019-04-05T08:31:14.263Z,33.1
2019-04-05T08:31:56.639Z,33.1
2019-04-05T08:32:46.705Z,33.2
2019-04-05T08:33:38.435Z,33.3
2019-04-05T08:34:26.827Z,33.5
2019-04-05T08:35:16.886Z,33.8
2019-04-05T08:36:06.389Z,34.3
2019-04-05T08:36:56.994Z,34.9
2019-04-05T08:37:47.066Z,35.7
2019-04-05T08:38:40.292Z,36.6
2019-04-05T08:39:26.929Z,37.4
2019-04-05T08:40:17.244Z,38.1
2019-04-05T08:41:07.309Z,38.8
2019-04-05T08:41:57.078Z,39.3
2019-04-05T08:42:47.418Z,39.8
2019-04-05T08:43:37.499Z,40.3
2019-04-05T08:44:27.541Z,41.1
2019-04-05T08:45:17.609Z,42.6
2019-04-05T08:46:07.404Z,43.4
2019-04-05T08:46:57.726Z,43.6
2019-04-05T08:47:47.793Z,42.8
2019-04-05T08:48:37.566Z,41.1
2019-04-05T08:49:27.643Z,39.5
2019-04-05T08:50:17.966Z,38.8
2019-04-05T08:51:07.758Z,39.3
2019-04-05T08:51:57.823Z,40.3
2019-04-05T08:52:47.929Z,41.3
2019-04-05T08:53:38.208Z,41.9
2019-04-05T08:54:37.959Z,41.9
2019-04-05T08:55:18.335Z,41.5
2019-04-05T08:56:08.340Z,41
2019-04-05T08:56:58.460Z,40.4
2019-04-05T08:57:49.775Z,40.3
2019-04-05T08:58:38.290Z,40.3
2019-04-05T08:59:28.648Z,40.5
2019-04-05T09:00:18.700Z,40.7
2019-04-05T09:01:08.842Z,40.9
2019-04-05T09:01:58.812Z,41.1
2019-04-05T09:02:49.164Z,41.1
2019-04-05T09:03:38.666Z,41.3
2019-04-05T09:04:28.737Z,41.4
2019-04-05T09:05:19.072Z,41.6
2019-04-05T09:06:08.567Z,41.6
2019-04-05T09:06:59.182Z,41.6
2019-04-05T09:07:49.255Z,41.6
2019-04-05T09:08:39.042Z,41.4
2019-04-05T09:09:29.362Z,41.1
2019-04-05T09:10:19.161Z,40.9
2019-04-05T09:11:09.212Z,40.8
2019-04-05T09:11:59.554Z,40.8
2019-04-05T09:12:49.599Z,40.8
2019-04-05T09:13:39.670Z,40.8
2019-04-05T09:14:29.464Z,40.9
2019-04-05T09:15:19.511Z,41.1
2019-04-05T09:16:13.179Z,41.2
2019-04-05T09:16:59.905Z,41.3
2019-04-05T09:17:49.971Z,41.3
2019-04-05T09:18:39.749Z,41.3
2019-04-05T09:19:29.544Z,41.2
2019-04-05T09:20:20.169Z,41.2
2019-04-05T09:21:12.249Z,41.3
2019-04-05T09:22:00.269Z,41.4
2019-04-05T09:22:50.332Z,41.6
2019-04-05T09:23:40.454Z,41.9
2019-04-05T09:24:30.183Z,42.4
2019-04-05T09:25:21.876Z,42.9
2019-04-05T09:26:10.579Z,43.3
2019-04-05T09:27:00.631Z,43.6
2019-04-05T09:27:50.501Z,43.8
2019-04-05T09:28:40.488Z,43.9
2019-04-05T09:29:30.822Z,44.2
2019-04-05T09:30:20.881Z,44.3
2019-04-05T09:31:10.921Z,44.2
2019-04-05T09:32:00.721Z,43.9
2019-04-05T09:32:50.787Z,43.7
2019-04-05T09:33:41.110Z,43.7
2019-04-05T09:34:31.304Z,44
2019-04-05T09:35:20.953Z,44.5
2019-04-05T09:36:11.296Z,45.1
2019-04-05T09:37:01.123Z,45.4
2019-04-05T09:37:50.610Z,45.4
2019-04-05T09:38:41.470Z,45
2019-04-05T09:39:31.258Z,44.4
2019-04-05T09:40:22.915Z,43.8
2019-04-05T09:41:11.672Z,43.2
2019-04-05T09:42:01.195Z,42.8
2019-04-05T09:42:51.536Z,42.6
2019-04-05T09:43:41.895Z,42.4
2019-04-05T09:44:31.900Z,42.3
2019-04-05T09:45:21.695Z,42
2019-04-05T09:46:12.031Z,41.7
2019-04-05T09:47:01.542Z,41.4
2019-04-05T09:47:51.873Z,41
2019-04-05T09:48:42.213Z,40.8
2019-04-05T09:49:38.912Z,40.5
2019-04-05T09:50:22.042Z,40.3
2019-04-05T09:51:12.401Z,40.1
2019-04-05T09:52:02.172Z,39.8
2019-04-05T09:52:51.977Z,39.4
2019-04-05T09:53:42.602Z,39.1
2019-04-05T09:54:32.632Z,38.8
2019-04-05T09:55:22.684Z,38.3
2019-04-05T09:56:12.201Z,37.2
2019-04-05T09:57:02.834Z,36.3
2019-04-05T09:57:52.310Z,35.6
2019-04-05T09:58:42.929Z,35.1
2019-04-05T09:59:32.989Z,34.7
2019-04-05T10:00:23.046Z,34.4
2019-04-05T10:01:12.836Z,34.2
2019-04-05T10:02:03.251Z,34
2019-04-05T10:02:53.027Z,33.8
2019-04-05T10:03:42.799Z,33.6
2019-04-05T10:08:16.601Z,33
2019-04-05T10:10:26.948Z,33.1
2019-04-05T12:06:09.855Z,32.3
2019-04-05T12:06:59.962Z,31.8
2019-04-05T12:07:50.365Z,31.5
2019-04-05T12:08:40.050Z,31.3
2019-04-05T12:09:30.393Z,31.2
2019-04-05T12:10:21.507Z,31.3
2019-04-05T12:11:10.487Z,31.3
2019-04-05T12:12:00.025Z,31.4
2019-04-05T12:12:50.640Z,31.5
2019-04-05T12:13:40.412Z,31.6
2019-04-05T12:14:32.404Z,31.6
2019-04-05T12:15:20.550Z,31.8
2019-04-05T12:16:12.269Z,31.8
2019-04-05T12:17:00.914Z,31.9
2019-04-05T12:17:50.452Z,31.9
2019-04-05T12:18:41.069Z,32
2019-04-05T12:19:34.014Z,32.1
2019-04-05T12:20:21.156Z,32.2
2019-04-05T12:21:10.990Z,32.3
2019-04-05T12:22:04.363Z,32.3
2019-04-05T12:22:54.532Z,32.3
2019-04-05T12:23:41.244Z,32.3
2019-04-05T12:24:34.711Z,32.4
2019-04-05T12:25:21.536Z,32.4
2019-04-05T12:26:11.313Z,32.4
2019-04-05T12:27:06.159Z,32.4
2019-04-05T12:27:51.442Z,32.5
2019-04-05T12:28:41.486Z,32.5
2019-04-05T12:29:31.549Z,32.5
2019-04-05T12:30:21.644Z,32.5
2019-04-05T12:31:11.947Z,32.5
2019-04-05T12:32:02.013Z,32.5
2019-04-05T12:32:51.794Z,32.4
2019-04-05T12:33:42.171Z,32.4
2019-04-05T12:34:31.928Z,32.4
2019-04-05T12:35:23.931Z,32.4
2019-04-05T12:36:12.036Z,32.4
2019-04-05T12:37:02.371Z,32.3
2019-04-05T12:37:57.410Z,32.3
2019-04-05T12:38:42.506Z,32.2
2019-04-05T12:39:32.569Z,32.1
2019-04-05T12:40:22.618Z,32.1
2019-04-05T12:41:13.425Z,32.1
2019-04-05T12:42:02.761Z,32
2019-04-05T12:42:55.107Z,32
2019-04-05T12:43:46.300Z,32
2019-04-05T12:44:32.370Z,31.9
2019-04-05T12:45:22.982Z,31.9
2019-04-05T12:46:17.772Z,31.9
2019-04-05T12:47:02.560Z,31.8
2019-04-05T12:47:52.885Z,31.8
2019-04-05T12:48:47.422Z,31.8
2019-04-05T12:49:33.293Z,31.8
2019-04-05T12:50:23.075Z,31.8
2019-04-05T12:51:17.522Z,31.7
2019-04-05T12:52:02.937Z,31.7
2019-04-05T12:52:57.414Z,31.8
2019-04-05T12:53:43.113Z,31.8
2019-04-05T12:54:33.642Z,31.9
2019-04-05T12:55:26.073Z,32
2019-04-05T12:56:13.231Z,32.1
2019-04-05T12:57:03.855Z,32.1
2019-04-05T12:57:56.908Z,32.3
2019-04-05T12:58:43.960Z,32.4
2019-04-05T12:59:33.775Z,32.5
2019-04-05T13:00:27.934Z,32.6
2019-04-05T13:01:13.878Z,32.8
2019-04-05T13:02:04.198Z,32.9
2019-04-05T13:02:56.802Z,33
2019-04-05T13:03:44.336Z,33.1
2019-04-05T13:04:34.375Z,33.2
2019-04-05T13:05:24.442Z,33.3
2019-04-05T13:06:14.940Z,33.4
2019-04-05T13:07:04.571Z,33.4
2019-04-05T13:07:55.492Z,33.6
2019-04-05T13:08:44.704Z,33.7
2019-04-05T13:09:34.732Z,33.8
2019-04-05T13:10:31.352Z,33.9
2019-04-05T13:11:14.938Z,34.1
2019-04-05T13:12:04.757Z,34.3
2019-04-05T13:12:59.614Z,34.3
2019-04-05T13:13:44.500Z,34.4
2019-04-05T13:14:35.129Z,34.5
2019-04-05T13:15:24.902Z,34.6
2019-04-05T13:16:15.226Z,34.6
2019-04-05T13:17:04.744Z,34.6
2019-04-05T13:17:55.350Z,34.6
2019-04-05T13:18:45.143Z,34.6
2019-04-05T13:19:35.483Z,34.6
2019-04-05T13:20:25.545Z,34.6
2019-04-05T13:21:17.286Z,34.6
2019-04-05T13:22:05.696Z,34.7
2019-04-05T13:22:55.445Z,34.7
2019-04-05T13:23:45.805Z,34.8
2019-04-05T13:24:39.379Z,34.7
2019-04-05T13:25:25.691Z,34.6
2019-04-05T13:26:15.438Z,34.6
2019-04-05T13:27:06.053Z,34.4
2019-04-05T13:27:56.077Z,34.3
2019-04-05T13:28:50.272Z,34.2
2019-04-05T13:29:36.220Z,34.1
2019-04-05T13:30:26.305Z,34.1
2019-04-05T13:31:19.993Z,34.1
2019-04-05T13:32:06.116Z,34.1
2019-04-05T13:32:55.913Z,34
2019-04-05T13:33:45.959Z,33.9
2019-04-05T13:34:36.567Z,33.9
2019-04-05T13:35:26.365Z,33.9
2019-04-05T13:36:16.695Z,33.9
2019-04-05T13:37:20.786Z,33.8
2019-04-05T13:37:58.489Z,33.6
2019-04-05T13:39:01.161Z,33.6
2019-04-05T13:39:36.710Z,33.4
2019-04-05T13:40:31.172Z,33.3
2019-04-05T13:41:19.639Z,33.3
2019-04-05T13:42:07.159Z,33.1
2019-04-05T13:42:57.175Z,33.1
2019-04-05T13:43:47.229Z,32.9
2019-04-05T13:44:37.039Z,32.9
2019-04-05T13:45:27.084Z,32.9
2019-04-05T13:46:27.381Z,32.9
2019-04-05T13:47:10.603Z,32.8
2019-04-05T13:47:57.539Z,32.8
2019-04-05T13:48:47.334Z,32.7
2019-04-05T13:49:41.952Z,32.6
2019-04-05T13:50:27.726Z,32.4
2019-04-05T13:51:33.389Z,32.3
2019-04-05T13:52:13.219Z,32.1
2019-04-05T13:52:57.911Z,32
2019-04-05T13:53:48.028Z,31.9
2019-04-05T13:54:41.611Z,31.7
2019-04-05T13:55:28.144Z,31.6
2019-04-05T13:56:18.149Z,31.4
2019-04-05T13:57:12.126Z,31.4
2019-04-05T13:58:01.258Z,31.3
2019-04-05T13:58:48.721Z,31.2
2019-04-05T13:59:38.401Z,31.1
2019-04-05T14:00:28.178Z,31.1
2019-04-05T14:01:23.146Z,30.9
2019-04-05T14:02:08.816Z,30.8
2019-04-05T14:02:58.381Z,30.8
2019-04-05T14:03:52.223Z,30.7
2019-04-05T14:04:38.756Z,30.6
2019-04-05T14:07:10.043Z,30.4
2019-04-05T14:08:12.353Z,30.4
2019-04-05T14:08:50.167Z,30.3
2019-04-05T14:09:42.729Z,30.2
2019-04-05T14:10:30.030Z,30
2019-04-05T14:11:19.523Z,29.9
2019-04-05T14:12:12.085Z,29.8
2019-04-05T14:13:00.450Z,29.6
2019-04-05T14:13:49.983Z,29.4
2019-04-05T14:14:43.651Z,29.4
2019-04-05T14:15:33.182Z,29.2
2019-04-05T14:16:20.713Z,29.1
2019-04-05T14:17:14.890Z,29.1
2019-04-05T14:18:00.827Z,29
2019-04-05T14:18:51.867Z,28.9
2019-04-05T14:19:40.960Z,28.9
2019-04-05T14:20:30.733Z,28.8
2019-04-05T14:21:24.241Z,28.8
2019-04-05T14:22:13.531Z,28.6
2019-04-05T14:23:02.773Z,28.6
2019-04-05T14:23:55.828Z,28.6
2019-04-05T14:24:43.713Z,28.4
2019-04-05T14:25:33.783Z,28.4
2019-04-05T14:26:23.833Z,28.3
2019-04-05T14:27:13.892Z,28.1
2019-04-05T14:28:06.889Z,28.1
2019-04-05T14:28:55.113Z,27.9
2019-04-05T14:30:35.283Z,27.8
2019-04-05T14:31:23.925Z,27.6
2019-04-05T14:32:23.570Z,27.6
2019-04-05T14:33:04.339Z,27.4
2019-04-05T14:33:56.485Z,27.4
2019-04-05T14:34:44.443Z,27.3
2019-04-05T14:35:34.498Z,27.2
2019-04-05T14:36:25.522Z,27.1
2019-04-05T14:37:14.618Z,27
2019-04-05T14:38:05.020Z,26.9
2019-04-05T14:38:54.765Z,26.9
2019-04-05T14:39:44.519Z,26.8
2019-04-05T14:40:34.872Z,26.8
2019-04-05T14:41:24.910Z,26.8
2019-04-05T14:42:17.185Z,26.7
2019-04-05T14:43:05.052Z,26.7
2019-04-05T14:43:55.584Z,26.7
2019-04-05T14:44:45.189Z,26.6
2019-04-05T14:45:34.690Z,26.7
2019-04-05T14:46:29.721Z,26.6
2019-04-05T14:47:15.345Z,26.6
2019-04-05T14:48:04.923Z,26.6
2019-04-05T14:48:54.919Z,26.7
2019-04-05T14:49:45.275Z,26.7
2019-04-05T14:50:35.609Z,26.7
2019-04-05T14:51:29.964Z,26.6
2019-04-05T14:52:15.428Z,26.6
2019-04-05T14:53:05.059Z,26.6
2019-04-05T14:53:55.837Z,26.6
2019-04-05T14:54:45.639Z,26.6
2019-04-05T14:55:35.686Z,26.6
2019-04-05T14:56:30.221Z,26.6
2019-04-05T14:57:16.069Z,26.5
2019-04-05T14:58:11.007Z,26.4
2019-04-05T14:58:56.192Z,26.4
2019-04-05T14:59:46.281Z,26.4
2019-04-05T15:00:36.334Z,26.4
2019-04-05T15:01:26.379Z,26.4
2019-04-05T15:02:16.439Z,26.4
2019-04-05T15:03:06.503Z,26.4
2019-04-05T15:03:56.289Z,26.4
2019-04-05T15:04:49.117Z,26.4
2019-04-05T15:05:36.681Z,26.4
2019-04-05T15:06:28.646Z,26.5
2019-04-05T15:07:20.396Z,26.5
2019-04-05T15:08:06.868Z,26.4
2019-04-05T15:08:56.918Z,26.4
2019-04-05T15:09:46.433Z,26.4
2019-04-05T15:10:36.767Z,26.4
2019-04-05T15:11:30.813Z,26.4
2019-04-05T15:12:17.156Z,26.3
2019-04-05T15:13:07.225Z,26.3
2019-04-05T15:13:56.737Z,26.2
2019-04-05T15:14:47.368Z,26.1
2019-04-05T15:15:37.142Z,26
2019-04-05T15:16:27.208Z,25.9
2019-04-05T15:17:17.945Z,25.8
2019-04-05T15:18:07.301Z,25.7
2019-04-05T15:18:57.650Z,25.6
2019-04-05T15:19:47.704Z,25.5
2019-04-05T15:20:37.534Z,25.4
2019-04-05T15:21:27.557Z,25.4
2019-04-05T15:22:17.894Z,25.3
2019-04-05T15:23:15.098Z,25.3
2019-04-05T15:23:58.025Z,25.2
2019-04-05T15:24:49.520Z,25.1
2019-04-05T15:25:37.928Z,25
2019-04-05T15:26:28.188Z,24.9
2019-04-05T15:27:19.438Z,24.9
2019-04-05T15:28:08.312Z,24.9
2019-04-05T15:28:58.099Z,24.8
2019-04-05T15:29:48.465Z,24.7
2019-04-05T15:30:38.504Z,24.6
2019-04-05T15:31:28.627Z,24.6
2019-04-05T15:32:21.047Z,24.5
2019-04-05T15:33:08.710Z,24.4
2019-04-05T15:34:00.234Z,24.4
2019-04-05T15:34:48.538Z,24.3
2019-04-05T15:35:38.856Z,24.2
2019-04-05T15:36:33.146Z,24.1
2019-04-05T15:37:18.703Z,24
2019-04-05T15:38:08.757Z,23.9
2019-04-05T15:39:02.902Z,23.9
2019-04-05T15:39:48.904Z,23.8
2019-04-05T15:40:39.209Z,23.6
2019-04-05T15:41:29.012Z,23.6
2019-04-05T15:42:19.366Z,23.4
2019-04-05T15:43:09.411Z,23.4
2019-04-05T15:43:59.461Z,23.3
2019-04-05T15:44:49.946Z,23.2
2019-04-05T15:45:39.330Z,23.1
2019-04-05T15:46:29.114Z,23
2019-04-05T15:47:23.141Z,22.9
2019-04-05T15:48:09.512Z,22.8
2019-04-05T15:48:59.578Z,22.8
2019-04-05T15:49:54.373Z,22.6
2019-04-05T15:50:39.397Z,22.5
2019-04-05T15:51:30.008Z,22.4
2019-04-05T15:52:21.273Z,22.4
2019-04-05T15:53:09.575Z,22.3
2019-04-05T15:54:03.435Z,22.1
2019-04-05T15:54:49.988Z,22.1
2019-04-05T15:55:39.761Z,21.9
2019-04-05T15:56:34.263Z,21.9
2019-04-05T15:57:20.158Z,21.8
2019-04-05T15:58:10.488Z,21.7
2019-04-05T15:59:04.785Z,21.6
2019-04-05T15:59:50.336Z,21.5
2019-04-05T16:00:40.710Z,21.4
2019-04-05T16:01:34.906Z,21.4
2019-04-05T16:02:20.798Z,21.3
2019-04-05T16:03:10.845Z,21.2
2019-04-05T16:04:04.620Z,21.1
2019-04-05T16:04:50.442Z,21
2019-04-05T16:07:09.689Z,20.8
2019-04-05T16:08:00.031Z,20.7
2019-04-05T16:08:49.815Z,20.6
2019-04-05T16:09:39.867Z,20.5
2019-04-05T16:10:30.216Z,20.4
2019-04-05T16:11:20.264Z,20.3
2019-04-05T16:12:10.323Z,20.3
2019-04-05T16:13:00.384Z,20.2
2019-04-05T16:13:50.172Z,20.1
2019-04-05T16:14:40.246Z,20
2019-04-05T16:15:30.285Z,19.9
2019-04-05T16:16:20.635Z,19.8
2019-04-05T16:17:13.224Z,19.8
2019-04-05T16:18:00.471Z,19.6
2019-04-05T16:18:50.809Z,19.6
2019-04-05T16:19:40.858Z,19.4
2019-04-05T16:20:30.454Z,19.4
2019-04-05T16:21:20.989Z,19.3
2019-04-05T16:22:11.049Z,19.3
2019-04-05T16:23:00.846Z,19.1
2019-04-05T16:23:50.351Z,19.1
2019-04-05T16:24:40.966Z,19
2019-04-05T16:25:31.293Z,18.9
2019-04-05T16:26:21.374Z,18.8
2019-04-05T16:27:11.429Z,18.8
2019-04-05T16:28:51.539Z,18.6
2019-04-05T16:29:41.337Z,18.5